sensor_id;sensor_type;location;lat;lon;timestamp;P1;durP1;ratioP1;P2;durP2;ratioP2
45728;SDS011;31439;53.512;10.206;2023-04-29T00:01:10;16.65;;;11.07;;
45728;SDS011;31439;53.512;10.206;2023-04-29T00:03:36;13.63;;;10.15;;
45728;SDS011;31439;53.512;10.206;2023-04-29T00:06:01;13.15;;;10.70;;
45728;SDS011;31439;53.512;10.206;2023-04-29T00:08:27;14.43;;;10.70;;
45728;SDS011;31439;53.512;10.206;2023-04-29T00:10:53;13.95;;;10.48;;
45728;SDS011;31439;53.512;10.206;2023-04-29T00:13:18;15.60;;;11.07;;
45728;SDS011;31439;53.512;10.206;2023-04-29T00:15:45;17.83;;;11.10;;
45728;SDS011;31439;53.512;10.206;2023-04-29T00:18:10;15.40;;;11.00;;
45728;SDS011;31439;53.512;10.206;2023-04-29T00:20:38;16.20;;;11.18;;
45728;SDS011;31439;53.512;10.206;2023-04-29T00:23:04;17.67;;;11.40;;
45728;SDS011;31439;53.512;10.206;2023-04-29T00:25:30;15.70;;;11.40;;
45728;SDS011;31439;53.512;10.206;2023-04-29T00:27:55;18.55;;;11.63;;
45728;SDS011;31439;53.512;10.206;2023-04-29T00:30:25;15.52;;;10.55;;
45728;SDS011;31439;53.512;10.206;2023-04-29T00:32:55;16.88;;;11.30;;
45728;SDS011;31439;53.512;10.206;2023-04-29T00:35:20;18.08;;;12.32;;
45728;SDS011;31439;53.512;10.206;2023-04-29T00:37:47;19.10;;;14.90;;
45728;SDS011;31439;53.512;10.206;2023-04-29T00:40:13;18.92;;;15.43;;
45728;SDS011;31439;53.512;10.206;2023-04-29T00:42:41;16.58;;;12.85;;
45728;SDS011;31439;53.512;10.206;2023-04-29T00:45:07;14.75;;;11.75;;
45728;SDS011;31439;53.512;10.206;2023-04-29T00:47:35;19.13;;;12.13;;
45728;SDS011;31439;53.512;10.206;2023-04-29T00:50:01;17.90;;;12.07;;
45728;SDS011;31439;53.512;10.206;2023-04-29T00:52:28;15.35;;;11.65;;
45728;SDS011;31439;53.512;10.206;2023-04-29T00:54:56;16.50;;;11.65;;
45728;SDS011;31439;53.512;10.206;2023-04-29T00:57:22;17.77;;;11.77;;
45728;SDS011;31439;53.512;10.206;2023-04-29T00:59:48;18.35;;;11.60;;
45728;SDS011;31439;53.512;10.206;2023-04-29T01:02:14;15.70;;;12.75;;
45728;SDS011;31439;53.512;10.206;2023-04-29T01:04:41;13.57;;;10.93;;
45728;SDS011;31439;53.512;10.206;2023-04-29T01:07:14;16.27;;;11.07;;
45728;SDS011;31439;53.512;10.206;2023-04-29T01:12:33;16.48;;;11.48;;
45728;SDS011;31439;53.512;10.206;2023-04-29T01:15:22;15.25;;;11.40;;
45728;SDS011;31439;53.512;10.206;2023-04-29T01:18:10;15.23;;;11.23;;
45728;SDS011;31439;53.512;10.206;2023-04-29T01:20:43;14.88;;;11.15;;
45728;SDS011;31439;53.512;10.206;2023-04-29T01:23:09;16.17;;;11.10;;
45728;SDS011;31439;53.512;10.206;2023-04-29T01:25:36;16.05;;;11.75;;
45728;SDS011;31439;53.512;10.206;2023-04-29T01:30:58;14.32;;;11.13;;
45728;SDS011;31439;53.512;10.206;2023-04-29T01:33:31;14.75;;;11.93;;
45728;SDS011;31439;53.512;10.206;2023-04-29T01:39:15;18.70;;;12.52;;
45728;SDS011;31439;53.512;10.206;2023-04-29T01:41:56;17.92;;;12.57;;
45728;SDS011;31439;53.512;10.206;2023-04-29T01:44:45;17.58;;;12.25;;
45728;SDS011;31439;53.512;10.206;2023-04-29T01:47:13;16.25;;;12.70;;
45728;SDS011;31439;53.512;10.206;2023-04-29T01:49:39;17.42;;;12.98;;
45728;SDS011;31439;53.512;10.206;2023-04-29T01:52:05;18.45;;;13.52;;
45728;SDS011;31439;53.512;10.206;2023-04-29T01:54:31;17.35;;;13.13;;
45728;SDS011;31439;53.512;10.206;2023-04-29T01:57:00;18.30;;;13.57;;
45728;SDS011;31439;53.512;10.206;2023-04-29T01:59:26;19.23;;;14.20;;
45728;SDS011;31439;53.512;10.206;2023-04-29T02:01:52;19.98;;;14.93;;
45728;SDS011;31439;53.512;10.206;2023-04-29T02:04:18;22.70;;;15.50;;
45728;SDS011;31439;53.512;10.206;2023-04-29T02:06:43;21.90;;;14.70;;
45728;SDS011;31439;53.512;10.206;2023-04-29T02:09:09;20.05;;;14.77;;
45728;SDS011;31439;53.512;10.206;2023-04-29T02:11:35;19.35;;;15.52;;
45728;SDS011;31439;53.512;10.206;2023-04-29T02:14:00;20.70;;;15.45;;
45728;SDS011;31439;53.512;10.206;2023-04-29T02:16:26;24.42;;;16.08;;
45728;SDS011;31439;53.512;10.206;2023-04-29T02:18:51;24.15;;;15.60;;
45728;SDS011;31439;53.512;10.206;2023-04-29T02:21:17;20.75;;;15.50;;
45728;SDS011;31439;53.512;10.206;2023-04-29T02:23:43;20.20;;;15.40;;
45728;SDS011;31439;53.512;10.206;2023-04-29T02:26:08;24.27;;;15.65;;
45728;SDS011;31439;53.512;10.206;2023-04-29T02:28:34;21.02;;;15.25;;
45728;SDS011;31439;53.512;10.206;2023-04-29T02:31:00;21.77;;;15.55;;
45728;SDS011;31439;53.512;10.206;2023-04-29T02:33:26;20.58;;;16.35;;
45728;SDS011;31439;53.512;10.206;2023-04-29T02:35:52;22.23;;;16.10;;
45728;SDS011;31439;53.512;10.206;2023-04-29T02:38:17;25.52;;;16.77;;
45728;SDS011;31439;53.512;10.206;2023-04-29T02:40:43;21.67;;;15.70;;
45728;SDS011;31439;53.512;10.206;2023-04-29T02:43:09;22.67;;;15.57;;
45728;SDS011;31439;53.512;10.206;2023-04-29T02:45:36;19.92;;;15.35;;
45728;SDS011;31439;53.512;10.206;2023-04-29T02:48:02;20.02;;;15.65;;
45728;SDS011;31439;53.512;10.206;2023-04-29T02:50:28;19.48;;;15.63;;
45728;SDS011;31439;53.512;10.206;2023-04-29T02:52:54;21.05;;;15.63;;
45728;SDS011;31439;53.512;10.206;2023-04-29T02:55:20;24.25;;;15.70;;
45728;SDS011;31439;53.512;10.206;2023-04-29T02:57:45;21.40;;;15.20;;
45728;SDS011;31439;53.512;10.206;2023-04-29T03:00:11;19.15;;;14.32;;
45728;SDS011;31439;53.512;10.206;2023-04-29T03:02:37;19.35;;;14.20;;
45728;SDS011;31439;53.512;10.206;2023-04-29T03:05:03;19.23;;;14.32;;
45728;SDS011;31439;53.512;10.206;2023-04-29T03:07:29;20.60;;;14.48;;
45728;SDS011;31439;53.512;10.206;2023-04-29T03:09:55;20.15;;;13.73;;
45728;SDS011;31439;53.512;10.206;2023-04-29T03:12:21;20.67;;;14.15;;
45728;SDS011;31439;53.512;10.206;2023-04-29T03:14:47;17.77;;;13.60;;
45728;SDS011;31439;53.512;10.206;2023-04-29T03:17:13;23.85;;;14.18;;
45728;SDS011;31439;53.512;10.206;2023-04-29T03:19:39;21.40;;;13.45;;
45728;SDS011;31439;53.512;10.206;2023-04-29T03:22:05;18.40;;;13.88;;
45728;SDS011;31439;53.512;10.206;2023-04-29T03:24:32;17.00;;;13.23;;
45728;SDS011;31439;53.512;10.206;2023-04-29T03:26:58;18.75;;;13.18;;
45728;SDS011;31439;53.512;10.206;2023-04-29T03:29:28;20.17;;;14.48;;
45728;SDS011;31439;53.512;10.206;2023-04-29T03:31:54;21.92;;;14.73;;
45728;SDS011;31439;53.512;10.206;2023-04-29T03:34:21;20.70;;;13.95;;
45728;SDS011;31439;53.512;10.206;2023-04-29T03:36:46;19.80;;;14.18;;
45728;SDS011;31439;53.512;10.206;2023-04-29T03:39:12;20.50;;;14.45;;
45728;SDS011;31439;53.512;10.206;2023-04-29T03:41:37;24.70;;;15.18;;
45728;SDS011;31439;53.512;10.206;2023-04-29T03:44:03;23.15;;;14.75;;
45728;SDS011;31439;53.512;10.206;2023-04-29T03:46:29;20.13;;;15.50;;
45728;SDS011;31439;53.512;10.206;2023-04-29T03:48:55;21.35;;;15.73;;
45728;SDS011;31439;53.512;10.206;2023-04-29T03:51:22;22.42;;;15.23;;
45728;SDS011;31439;53.512;10.206;2023-04-29T03:53:48;23.90;;;15.88;;
45728;SDS011;31439;53.512;10.206;2023-04-29T03:56:14;20.80;;;15.48;;
45728;SDS011;31439;53.512;10.206;2023-04-29T03:58:40;21.90;;;15.43;;
45728;SDS011;31439;53.512;10.206;2023-04-29T04:01:06;20.85;;;15.88;;
45728;SDS011;31439;53.512;10.206;2023-04-29T04:03:31;23.63;;;15.80;;
45728;SDS011;31439;53.512;10.206;2023-04-29T04:05:57;24.52;;;16.40;;
45728;SDS011;31439;53.512;10.206;2023-04-29T04:08:23;25.00;;;15.35;;
45728;SDS011;31439;53.512;10.206;2023-04-29T04:10:48;21.98;;;16.10;;
45728;SDS011;31439;53.512;10.206;2023-04-29T04:13:14;21.83;;;16.27;;
45728;SDS011;31439;53.512;10.206;2023-04-29T04:15:39;22.73;;;16.55;;
45728;SDS011;31439;53.512;10.206;2023-04-29T04:18:06;23.38;;;16.40;;
45728;SDS011;31439;53.512;10.206;2023-04-29T04:20:32;22.73;;;16.10;;
45728;SDS011;31439;53.512;10.206;2023-04-29T04:23:00;21.52;;;16.13;;
45728;SDS011;31439;53.512;10.206;2023-04-29T04:25:26;21.65;;;16.02;;
45728;SDS011;31439;53.512;10.206;2023-04-29T04:27:52;24.45;;;16.98;;
45728;SDS011;31439;53.512;10.206;2023-04-29T04:30:18;23.67;;;16.67;;
45728;SDS011;31439;53.512;10.206;2023-04-29T04:32:44;21.48;;;16.48;;
45728;SDS011;31439;53.512;10.206;2023-04-29T04:35:10;22.42;;;16.17;;
45728;SDS011;31439;53.512;10.206;2023-04-29T04:37:36;24.58;;;16.13;;
45728;SDS011;31439;53.512;10.206;2023-04-29T04:40:02;21.15;;;15.45;;
45728;SDS011;31439;53.512;10.206;2023-04-29T04:42:28;21.30;;;16.75;;
45728;SDS011;31439;53.512;10.206;2023-04-29T04:44:53;21.55;;;15.15;;
45728;SDS011;31439;53.512;10.206;2023-04-29T04:47:19;20.42;;;15.52;;
45728;SDS011;31439;53.512;10.206;2023-04-29T04:49:45;24.92;;;14.90;;
45728;SDS011;31439;53.512;10.206;2023-04-29T04:52:10;22.55;;;14.93;;
45728;SDS011;31439;53.512;10.206;2023-04-29T04:54:36;20.75;;;15.57;;
45728;SDS011;31439;53.512;10.206;2023-04-29T04:57:02;22.10;;;16.00;;
45728;SDS011;31439;53.512;10.206;2023-04-29T04:59:30;23.05;;;14.80;;
45728;SDS011;31439;53.512;10.206;2023-04-29T05:01:56;25.00;;;15.77;;
45728;SDS011;31439;53.512;10.206;2023-04-29T05:04:21;25.27;;;16.85;;
45728;SDS011;31439;53.512;10.206;2023-04-29T05:06:47;27.65;;;15.90;;
45728;SDS011;31439;53.512;10.206;2023-04-29T05:09:12;21.83;;;15.82;;
45728;SDS011;31439;53.512;10.206;2023-04-29T05:11:38;19.90;;;15.23;;
45728;SDS011;31439;53.512;10.206;2023-04-29T05:14:04;22.15;;;16.23;;
45728;SDS011;31439;53.512;10.206;2023-04-29T05:16:29;24.25;;;16.65;;
45728;SDS011;31439;53.512;10.206;2023-04-29T05:18:55;20.27;;;15.23;;
45728;SDS011;31439;53.512;10.206;2023-04-29T05:21:20;19.92;;;14.90;;
45728;SDS011;31439;53.512;10.206;2023-04-29T05:23:46;24.90;;;15.45;;
45728;SDS011;31439;53.512;10.206;2023-04-29T05:26:12;19.73;;;15.13;;
45728;SDS011;31439;53.512;10.206;2023-04-29T05:28:37;21.17;;;14.75;;
45728;SDS011;31439;53.512;10.206;2023-04-29T05:31:03;22.35;;;14.68;;
45728;SDS011;31439;53.512;10.206;2023-04-29T05:33:28;21.23;;;15.18;;
45728;SDS011;31439;53.512;10.206;2023-04-29T05:35:54;20.77;;;14.45;;
45728;SDS011;31439;53.512;10.206;2023-04-29T05:38:20;21.05;;;13.68;;
45728;SDS011;31439;53.512;10.206;2023-04-29T05:40:46;19.95;;;14.98;;
45728;SDS011;31439;53.512;10.206;2023-04-29T05:43:14;19.02;;;14.40;;
45728;SDS011;31439;53.512;10.206;2023-04-29T05:45:39;21.65;;;13.90;;
45728;SDS011;31439;53.512;10.206;2023-04-29T05:48:05;19.42;;;13.48;;
45728;SDS011;31439;53.512;10.206;2023-04-29T05:50:30;19.13;;;13.13;;
45728;SDS011;31439;53.512;10.206;2023-04-29T05:52:56;19.77;;;12.90;;
45728;SDS011;31439;53.512;10.206;2023-04-29T05:55:22;19.33;;;12.93;;
45728;SDS011;31439;53.512;10.206;2023-04-29T05:57:47;17.50;;;12.88;;
45728;SDS011;31439;53.512;10.206;2023-04-29T06:00:13;17.88;;;12.73;;
45728;SDS011;31439;53.512;10.206;2023-04-29T06:02:39;13.82;;;11.65;;
45728;SDS011;31439;53.512;10.206;2023-04-29T06:05:07;19.10;;;12.65;;
45728;SDS011;31439;53.512;10.206;2023-04-29T06:07:33;17.50;;;13.07;;
45728;SDS011;31439;53.512;10.206;2023-04-29T06:09:58;18.65;;;11.90;;
45728;SDS011;31439;53.512;10.206;2023-04-29T06:12:24;17.65;;;12.93;;
45728;SDS011;31439;53.512;10.206;2023-04-29T06:14:49;19.08;;;11.38;;
45728;SDS011;31439;53.512;10.206;2023-04-29T06:17:15;16.75;;;11.23;;
45728;SDS011;31439;53.512;10.206;2023-04-29T06:19:41;17.80;;;10.75;;
45728;SDS011;31439;53.512;10.206;2023-04-29T06:22:06;17.40;;;11.05;;
45728;SDS011;31439;53.512;10.206;2023-04-29T06:24:32;15.07;;;10.05;;
45728;SDS011;31439;53.512;10.206;2023-04-29T06:26:57;15.02;;;9.68;;
45728;SDS011;31439;53.512;10.206;2023-04-29T06:29:23;15.23;;;9.50;;
45728;SDS011;31439;53.512;10.206;2023-04-29T06:32:09;15.32;;;9.18;;
45728;SDS011;31439;53.512;10.206;2023-04-29T06:34:40;14.25;;;9.02;;
45728;SDS011;31439;53.512;10.206;2023-04-29T06:37:05;15.73;;;9.73;;
45728;SDS011;31439;53.512;10.206;2023-04-29T06:39:31;13.68;;;9.10;;
45728;SDS011;31439;53.512;10.206;2023-04-29T06:41:57;13.13;;;8.35;;
45728;SDS011;31439;53.512;10.206;2023-04-29T06:44:22;13.40;;;8.73;;
45728;SDS011;31439;53.512;10.206;2023-04-29T06:46:48;14.07;;;8.57;;
45728;SDS011;31439;53.512;10.206;2023-04-29T06:49:14;15.13;;;8.30;;
45728;SDS011;31439;53.512;10.206;2023-04-29T06:51:40;10.63;;;8.05;;
45728;SDS011;31439;53.512;10.206;2023-04-29T06:54:06;14.15;;;7.70;;
45728;SDS011;31439;53.512;10.206;2023-04-29T06:56:32;14.07;;;7.68;;
45728;SDS011;31439;53.512;10.206;2023-04-29T06:58:58;14.60;;;7.75;;
45728;SDS011;31439;53.512;10.206;2023-04-29T07:01:24;10.05;;;7.43;;
45728;SDS011;31439;53.512;10.206;2023-04-29T07:03:49;12.40;;;7.35;;
45728;SDS011;31439;53.512;10.206;2023-04-29T07:06:15;11.85;;;7.47;;
45728;SDS011;31439;53.512;10.206;2023-04-29T07:08:41;13.25;;;8.00;;
45728;SDS011;31439;53.512;10.206;2023-04-29T07:11:06;14.18;;;7.55;;
45728;SDS011;31439;53.512;10.206;2023-04-29T07:13:32;13.10;;;7.25;;
45728;SDS011;31439;53.512;10.206;2023-04-29T07:15:57;13.55;;;8.13;;
45728;SDS011;31439;53.512;10.206;2023-04-29T07:18:23;11.02;;;7.30;;
45728;SDS011;31439;53.512;10.206;2023-04-29T07:20:49;11.93;;;6.97;;
45728;SDS011;31439;53.512;10.206;2023-04-29T07:23:16;10.93;;;7.65;;
45728;SDS011;31439;53.512;10.206;2023-04-29T07:25:42;13.57;;;7.38;;
45728;SDS011;31439;53.512;10.206;2023-04-29T07:28:08;10.77;;;7.47;;
45728;SDS011;31439;53.512;10.206;2023-04-29T07:30:33;12.35;;;7.25;;
45728;SDS011;31439;53.512;10.206;2023-04-29T07:33:00;11.60;;;7.25;;
45728;SDS011;31439;53.512;10.206;2023-04-29T07:35:26;12.57;;;7.90;;
45728;SDS011;31439;53.512;10.206;2023-04-29T07:37:51;12.43;;;7.25;;
45728;SDS011;31439;53.512;10.206;2023-04-29T07:40:17;10.48;;;7.85;;
45728;SDS011;31439;53.512;10.206;2023-04-29T07:42:43;10.43;;;6.70;;
45728;SDS011;31439;53.512;10.206;2023-04-29T07:45:08;12.90;;;7.10;;
45728;SDS011;31439;53.512;10.206;2023-04-29T07:47:35;10.68;;;6.50;;
45728;SDS011;31439;53.512;10.206;2023-04-29T07:50:01;11.65;;;6.75;;
45728;SDS011;31439;53.512;10.206;2023-04-29T07:52:27;12.23;;;6.70;;
45728;SDS011;31439;53.512;10.206;2023-04-29T07:54:52;14.20;;;7.90;;
45728;SDS011;31439;53.512;10.206;2023-04-29T07:57:21;13.90;;;6.55;;
45728;SDS011;31439;53.512;10.206;2023-04-29T07:59:50;13.82;;;6.97;;
45728;SDS011;31439;53.512;10.206;2023-04-29T08:02:18;8.20;;;5.80;;
45728;SDS011;31439;53.512;10.206;2023-04-29T08:04:44;12.45;;;6.75;;
45728;SDS011;31439;53.512;10.206;2023-04-29T08:07:10;12.85;;;6.35;;
45728;SDS011;31439;53.512;10.206;2023-04-29T08:09:36;12.25;;;6.18;;
45728;SDS011;31439;53.512;10.206;2023-04-29T08:12:02;7.60;;;5.32;;
45728;SDS011;31439;53.512;10.206;2023-04-29T08:14:28;12.02;;;6.53;;
45728;SDS011;31439;53.512;10.206;2023-04-29T08:16:54;11.60;;;6.53;;
45728;SDS011;31439;53.512;10.206;2023-04-29T08:19:20;12.82;;;6.80;;
45728;SDS011;31439;53.512;10.206;2023-04-29T08:21:46;9.70;;;6.05;;
45728;SDS011;31439;53.512;10.206;2023-04-29T08:24:11;8.77;;;6.05;;
45728;SDS011;31439;53.512;10.206;2023-04-29T08:26:38;12.65;;;6.07;;
45728;SDS011;31439;53.512;10.206;2023-04-29T08:29:05;9.88;;;5.88;;
45728;SDS011;31439;53.512;10.206;2023-04-29T08:31:30;10.45;;;6.72;;
45728;SDS011;31439;53.512;10.206;2023-04-29T08:33:56;10.55;;;6.65;;
45728;SDS011;31439;53.512;10.206;2023-04-29T08:36:22;10.50;;;6.10;;
45728;SDS011;31439;53.512;10.206;2023-04-29T08:38:48;11.70;;;6.15;;
45728;SDS011;31439;53.512;10.206;2023-04-29T08:41:17;11.30;;;7.38;;
45728;SDS011;31439;53.512;10.206;2023-04-29T08:43:42;10.43;;;6.75;;
45728;SDS011;31439;53.512;10.206;2023-04-29T08:46:08;9.43;;;6.03;;
45728;SDS011;31439;53.512;10.206;2023-04-29T08:48:35;11.45;;;5.80;;
45728;SDS011;31439;53.512;10.206;2023-04-29T08:51:01;10.05;;;7.25;;
45728;SDS011;31439;53.512;10.206;2023-04-29T08:53:27;11.85;;;6.15;;
45728;SDS011;31439;53.512;10.206;2023-04-29T08:55:53;9.07;;;5.97;;
45728;SDS011;31439;53.512;10.206;2023-04-29T08:58:21;13.02;;;6.80;;
45728;SDS011;31439;53.512;10.206;2023-04-29T09:00:49;10.63;;;6.05;;
45728;SDS011;31439;53.512;10.206;2023-04-29T09:03:39;9.98;;;6.20;;
45728;SDS011;31439;53.512;10.206;2023-04-29T09:06:06;10.05;;;5.95;;
45728;SDS011;31439;53.512;10.206;2023-04-29T09:08:35;13.20;;;5.90;;
45728;SDS011;31439;53.512;10.206;2023-04-29T09:11:02;10.13;;;5.68;;
45728;SDS011;31439;53.512;10.206;2023-04-29T09:13:29;13.02;;;5.13;;
45728;SDS011;31439;53.512;10.206;2023-04-29T09:15:56;8.02;;;5.55;;
45728;SDS011;31439;53.512;10.206;2023-04-29T09:18:40;7.82;;;5.03;;
45728;SDS011;31439;53.512;10.206;2023-04-29T09:21:24;7.90;;;5.50;;
45728;SDS011;31439;53.512;10.206;2023-04-29T09:23:52;8.88;;;5.28;;
45728;SDS011;31439;53.512;10.206;2023-04-29T09:26:19;12.20;;;5.97;;
45728;SDS011;31439;53.512;10.206;2023-04-29T09:28:46;9.73;;;5.72;;
45728;SDS011;31439;53.512;10.206;2023-04-29T09:31:29;9.40;;;5.60;;
45728;SDS011;31439;53.512;10.206;2023-04-29T09:33:55;14.43;;;6.50;;
45728;SDS011;31439;53.512;10.206;2023-04-29T09:39:10;8.00;;;5.05;;
45728;SDS011;31439;53.512;10.206;2023-04-29T09:41:40;9.10;;;5.93;;
45728;SDS011;31439;53.512;10.206;2023-04-29T09:44:28;8.52;;;5.97;;
45728;SDS011;31439;53.512;10.206;2023-04-29T09:52:07;8.93;;;6.05;;
45728;SDS011;31439;53.512;10.206;2023-04-29T09:55:28;11.15;;;6.00;;
45728;SDS011;31439;53.512;10.206;2023-04-29T09:57:55;8.40;;;5.72;;
45728;SDS011;31439;53.512;10.206;2023-04-29T10:00:21;11.32;;;6.25;;
45728;SDS011;31439;53.512;10.206;2023-04-29T10:02:48;11.30;;;7.25;;
45728;SDS011;31439;53.512;10.206;2023-04-29T10:05:15;12.57;;;7.38;;
45728;SDS011;31439;53.512;10.206;2023-04-29T10:07:40;9.98;;;7.43;;
45728;SDS011;31439;53.512;10.206;2023-04-29T10:10:07;11.27;;;7.82;;
45728;SDS011;31439;53.512;10.206;2023-04-29T10:12:35;10.18;;;7.05;;
45728;SDS011;31439;53.512;10.206;2023-04-29T10:15:48;9.10;;;6.57;;
45728;SDS011;31439;53.512;10.206;2023-04-29T10:18:13;17.33;;;7.60;;
45728;SDS011;31439;53.512;10.206;2023-04-29T10:20:46;10.65;;;6.75;;
45728;SDS011;31439;53.512;10.206;2023-04-29T10:23:12;9.63;;;6.80;;
45728;SDS011;31439;53.512;10.206;2023-04-29T10:25:39;9.38;;;6.78;;
45728;SDS011;31439;53.512;10.206;2023-04-29T10:28:11;9.35;;;6.22;;
45728;SDS011;31439;53.512;10.206;2023-04-29T10:30:43;10.80;;;6.93;;
45728;SDS011;31439;53.512;10.206;2023-04-29T10:33:10;9.77;;;6.60;;
45728;SDS011;31439;53.512;10.206;2023-04-29T10:35:36;11.85;;;6.78;;
45728;SDS011;31439;53.512;10.206;2023-04-29T10:38:04;9.95;;;6.43;;
45728;SDS011;31439;53.512;10.206;2023-04-29T10:40:35;9.43;;;6.13;;
45728;SDS011;31439;53.512;10.206;2023-04-29T10:43:16;10.35;;;6.78;;
45728;SDS011;31439;53.512;10.206;2023-04-29T10:45:48;10.73;;;6.60;;
45728;SDS011;31439;53.512;10.206;2023-04-29T10:48:14;9.02;;;5.93;;
45728;SDS011;31439;53.512;10.206;2023-04-29T10:53:12;7.93;;;5.07;;
45728;SDS011;31439;53.512;10.206;2023-04-29T10:55:39;9.95;;;5.20;;
45728;SDS011;31439;53.512;10.206;2023-04-29T10:58:32;9.90;;;5.75;;
45728;SDS011;31439;53.512;10.206;2023-04-29T11:01:30;9.38;;;4.40;;
45728;SDS011;31439;53.512;10.206;2023-04-29T11:04:09;7.75;;;4.70;;
45728;SDS011;31439;53.512;10.206;2023-04-29T11:06:58;8.43;;;4.30;;
45728;SDS011;31439;53.512;10.206;2023-04-29T11:09:34;7.88;;;5.00;;
45728;SDS011;31439;53.512;10.206;2023-04-29T11:12:06;7.95;;;5.13;;
45728;SDS011;31439;53.512;10.206;2023-04-29T11:14:41;7.28;;;5.20;;
45728;SDS011;31439;53.512;10.206;2023-04-29T11:17:08;8.43;;;5.47;;
45728;SDS011;31439;53.512;10.206;2023-04-29T11:19:40;7.82;;;6.13;;
45728;SDS011;31439;53.512;10.206;2023-04-29T11:24:51;11.45;;;6.00;;
45728;SDS011;31439;53.512;10.206;2023-04-29T11:27:18;10.07;;;6.00;;
45728;SDS011;31439;53.512;10.206;2023-04-29T11:29:48;8.07;;;5.60;;
45728;SDS011;31439;53.512;10.206;2023-04-29T11:32:14;9.40;;;6.10;;
45728;SDS011;31439;53.512;10.206;2023-04-29T11:34:40;11.95;;;6.28;;
45728;SDS011;31439;53.512;10.206;2023-04-29T11:37:06;10.63;;;7.15;;
45728;SDS011;31439;53.512;10.206;2023-04-29T11:39:35;10.43;;;5.97;;
45728;SDS011;31439;53.512;10.206;2023-04-29T11:42:04;10.32;;;6.78;;
45728;SDS011;31439;53.512;10.206;2023-04-29T11:44:32;9.73;;;6.90;;
45728;SDS011;31439;53.512;10.206;2023-04-29T11:47:03;8.73;;;6.82;;
45728;SDS011;31439;53.512;10.206;2023-04-29T11:49:30;9.27;;;6.05;;
45728;SDS011;31439;53.512;10.206;2023-04-29T11:51:56;12.27;;;6.60;;
45728;SDS011;31439;53.512;10.206;2023-04-29T11:54:24;11.65;;;6.68;;
45728;SDS011;31439;53.512;10.206;2023-04-29T11:56:53;10.63;;;6.35;;
45728;SDS011;31439;53.512;10.206;2023-04-29T11:59:20;8.65;;;5.72;;
45728;SDS011;31439;53.512;10.206;2023-04-29T12:01:46;9.80;;;6.15;;
45728;SDS011;31439;53.512;10.206;2023-04-29T12:04:13;10.95;;;6.47;;
45728;SDS011;31439;53.512;10.206;2023-04-29T12:06:39;8.30;;;5.97;;
45728;SDS011;31439;53.512;10.206;2023-04-29T12:09:05;7.40;;;5.75;;
45728;SDS011;31439;53.512;10.206;2023-04-29T12:11:31;9.65;;;6.40;;
45728;SDS011;31439;53.512;10.206;2023-04-29T12:13:57;9.45;;;5.63;;
45728;SDS011;31439;53.512;10.206;2023-04-29T12:16:26;7.85;;;5.53;;
45728;SDS011;31439;53.512;10.206;2023-04-29T12:18:53;9.10;;;5.40;;
45728;SDS011;31439;53.512;10.206;2023-04-29T12:21:20;9.93;;;6.30;;
45728;SDS011;31439;53.512;10.206;2023-04-29T12:23:46;8.15;;;5.90;;
45728;SDS011;31439;53.512;10.206;2023-04-29T12:26:12;7.35;;;5.55;;
45728;SDS011;31439;53.512;10.206;2023-04-29T12:28:39;9.65;;;6.10;;
45728;SDS011;31439;53.512;10.206;2023-04-29T12:31:07;11.27;;;6.30;;
45728;SDS011;31439;53.512;10.206;2023-04-29T12:33:34;8.20;;;5.40;;
45728;SDS011;31439;53.512;10.206;2023-04-29T12:35:59;9.82;;;5.97;;
45728;SDS011;31439;53.512;10.206;2023-04-29T12:38:28;11.73;;;6.63;;
45728;SDS011;31439;53.512;10.206;2023-04-29T12:40:58;7.50;;;5.50;;
45728;SDS011;31439;53.512;10.206;2023-04-29T12:43:28;10.02;;;5.97;;
45728;SDS011;31439;53.512;10.206;2023-04-29T12:46:02;6.93;;;5.13;;
45728;SDS011;31439;53.512;10.206;2023-04-29T12:48:29;8.35;;;5.20;;
45728;SDS011;31439;53.512;10.206;2023-04-29T12:50:59;7.85;;;4.97;;
45728;SDS011;31439;53.512;10.206;2023-04-29T12:53:26;7.25;;;4.95;;
45728;SDS011;31439;53.512;10.206;2023-04-29T12:55:53;8.30;;;5.60;;
45728;SDS011;31439;53.512;10.206;2023-04-29T12:58:19;7.40;;;5.00;;
45728;SDS011;31439;53.512;10.206;2023-04-29T13:00:45;9.90;;;4.85;;
45728;SDS011;31439;53.512;10.206;2023-04-29T13:03:11;5.90;;;4.57;;
45728;SDS011;31439;53.512;10.206;2023-04-29T13:05:36;7.75;;;4.10;;
45728;SDS011;31439;53.512;10.206;2023-04-29T13:08:02;6.28;;;3.88;;
45728;SDS011;31439;53.512;10.206;2023-04-29T13:10:32;5.60;;;3.83;;
45728;SDS011;31439;53.512;10.206;2023-04-29T13:12:58;8.20;;;4.00;;
45728;SDS011;31439;53.512;10.206;2023-04-29T13:15:24;7.50;;;3.97;;
45728;SDS011;31439;53.512;10.206;2023-04-29T13:17:50;6.45;;;3.70;;
45728;SDS011;31439;53.512;10.206;2023-04-29T13:20:16;5.07;;;3.08;;
45728;SDS011;31439;53.512;10.206;2023-04-29T13:22:42;6.53;;;3.17;;
45728;SDS011;31439;53.512;10.206;2023-04-29T13:25:09;8.27;;;3.85;;
45728;SDS011;31439;53.512;10.206;2023-04-29T13:27:36;5.57;;;3.45;;
45728;SDS011;31439;53.512;10.206;2023-04-29T13:30:02;7.03;;;3.58;;
45728;SDS011;31439;53.512;10.206;2023-04-29T13:32:32;6.78;;;4.20;;
45728;SDS011;31439;53.512;10.206;2023-04-29T13:34:57;10.35;;;4.68;;
45728;SDS011;31439;53.512;10.206;2023-04-29T13:37:23;7.55;;;4.15;;
45728;SDS011;31439;53.512;10.206;2023-04-29T13:39:48;7.25;;;4.47;;
45728;SDS011;31439;53.512;10.206;2023-04-29T13:42:14;8.50;;;4.97;;
45728;SDS011;31439;53.512;10.206;2023-04-29T13:44:40;8.95;;;4.85;;
45728;SDS011;31439;53.512;10.206;2023-04-29T13:47:08;7.72;;;4.70;;
45728;SDS011;31439;53.512;10.206;2023-04-29T13:49:40;7.38;;;4.97;;
45728;SDS011;31439;53.512;10.206;2023-04-29T13:52:10;8.55;;;4.65;;
45728;SDS011;31439;53.512;10.206;2023-04-29T13:54:36;7.72;;;4.60;;
45728;SDS011;31439;53.512;10.206;2023-04-29T13:57:02;7.22;;;4.55;;
45728;SDS011;31439;53.512;10.206;2023-04-29T13:59:30;8.82;;;4.47;;
45728;SDS011;31439;53.512;10.206;2023-04-29T14:01:57;6.70;;;3.88;;
45728;SDS011;31439;53.512;10.206;2023-04-29T14:04:23;5.72;;;3.78;;
45728;SDS011;31439;53.512;10.206;2023-04-29T14:06:50;8.57;;;3.72;;
45728;SDS011;31439;53.512;10.206;2023-04-29T14:09:16;6.80;;;3.65;;
45728;SDS011;31439;53.512;10.206;2023-04-29T14:11:42;5.82;;;3.25;;
45728;SDS011;31439;53.512;10.206;2023-04-29T14:14:08;5.35;;;3.00;;
45728;SDS011;31439;53.512;10.206;2023-04-29T14:16:34;4.82;;;2.50;;
45728;SDS011;31439;53.512;10.206;2023-04-29T14:19:00;5.32;;;2.35;;
45728;SDS011;31439;53.512;10.206;2023-04-29T14:21:26;4.78;;;2.55;;
45728;SDS011;31439;53.512;10.206;2023-04-29T14:23:52;5.68;;;2.42;;
45728;SDS011;31439;53.512;10.206;2023-04-29T14:26:17;5.57;;;2.22;;
45728;SDS011;31439;53.512;10.206;2023-04-29T14:28:43;4.18;;;2.03;;
45728;SDS011;31439;53.512;10.206;2023-04-29T14:31:08;4.22;;;1.92;;
45728;SDS011;31439;53.512;10.206;2023-04-29T14:33:37;4.18;;;2.00;;
45728;SDS011;31439;53.512;10.206;2023-04-29T14:36:03;4.25;;;2.38;;
45728;SDS011;31439;53.512;10.206;2023-04-29T14:38:29;3.58;;;2.28;;
45728;SDS011;31439;53.512;10.206;2023-04-29T14:40:55;6.22;;;2.30;;
45728;SDS011;31439;53.512;10.206;2023-04-29T14:43:20;4.05;;;2.58;;
45728;SDS011;31439;53.512;10.206;2023-04-29T14:45:46;4.53;;;2.10;;